PWSweather.com
Personal Weather Stations
Station Observations
WISCHPK61
Green Bay Schmitt Park, Green Bay, WI 54311

Green Bay Schmitt ParkGreen Bay, WI 54311

Lat: 44.514277, Lon: -87.935067

Elevation: 735

Station Type: Acu Rite Pro Weather Center model 02032C

http://greenbayweathercam.com

High Low Average
Temperature 84.9°F29.4°C 58.6°F14.8°C 70.8°F21.6°C
Dew Point 84.6°F29.2°C 58.3°F14.6°C 69.7°F20.9°C
Winds 3.5 mph 5.6 kmh Calm Calm Calm SCalm S
Wind Gusts 8.1 mph13.0 kmh -- --
Humidity 99% 69% 97%
Pressure 29.15 in987.1 mb 28.91 in979.0 mb -
Precipitation 0.00 in0.0 mm - -
Hour Temp Dew Point Humidity Winds Wind Gusts Pressure Precip Precip Rate Daily Precip Total
12:00 AM 62.4°F16.9°C 62.1°F16.7°C 99% Calm Calm -- 28.90 in978.7 mb - 0.00 in0.0 mm 0.00 in0.0 mm
01:00 AM 61.5°F16.4°C 61.2°F16.2°C 99% Calm Calm -- 28.91 in979.0 mb - 0.00 in0.0 mm 0.00 in0.0 mm
02:00 AM 61.3°F16.3°C 61.0°F16.1°C 99% Calm Calm -- 28.93 in979.7 mb - 0.00 in0.0 mm 0.00 in0.0 mm
03:00 AM 60.8°F16.0°C 60.5°F15.8°C 99% 1.2 mph NNW1.9 kmh NNW -- 28.95 in980.4 mb - 0.00 in0.0 mm 0.00 in0.0 mm
04:00 AM 60.3°F15.7°C 60.0°F15.6°C 99% Calm Calm -- 28.97 in981.0 mb - 0.00 in0.0 mm 0.00 in0.0 mm
05:00 AM 59.2°F15.1°C 58.9°F14.9°C 99% Calm Calm -- 29.00 in982.1 mb - 0.00 in0.0 mm 0.00 in0.0 mm
06:00 AM 58.6°F14.8°C 58.3°F14.6°C 99% Calm Calm -- 29.02 in982.7 mb - 0.00 in0.0 mm 0.00 in0.0 mm
07:00 AM 59.0°F15.0°C 58.7°F14.8°C 99% Calm Calm -- 29.03 in983.1 mb - 0.00 in0.0 mm 0.00 in0.0 mm
08:00 AM 61.2°F16.2°C 60.9°F16.1°C 99% Calm Calm -- 29.05 in983.7 mb - 0.00 in0.0 mm 0.00 in0.0 mm
09:00 AM 65.6°F18.7°C 61.6°F16.4°C 87% Calm Calm -- 29.05 in983.7 mb - 0.00 in0.0 mm 0.00 in0.0 mm
10:00 AM 70.5°F21.4°C 70.2°F21.2°C 99% Calm Calm -- 29.05 in983.7 mb - 0.00 in0.0 mm 0.00 in0.0 mm
11:00 AM 74.5°F23.6°C 74.2°F23.4°C 99% Calm Calm -- 29.05 in983.7 mb - 0.00 in0.0 mm 0.00 in0.0 mm
12:00 PM 77.5°F25.3°C 77.2°F25.1°C 99% Calm Calm -- 29.04 in983.4 mb - 0.00 in0.0 mm 0.00 in0.0 mm
01:00 PM 82.2°F27.9°C 81.9°F27.7°C 99% Calm Calm -- 29.03 in983.1 mb - 0.00 in0.0 mm 0.00 in0.0 mm
02:00 PM 84.9°F29.4°C 84.6°F29.2°C 99% Calm Calm -- 29.03 in983.1 mb - 0.00 in0.0 mm 0.00 in0.0 mm
03:00 PM 82.9°F28.3°C 78.3°F25.7°C 86% Calm Calm 1.2 mph1.9 kmh 29.03 in983.1 mb - 0.00 in0.0 mm 0.00 in0.0 mm
04:00 PM 81.2°F27.3°C 70.0°F21.1°C 69% 3.5 mph S5.6 kmh S 8.1 mph13.0 kmh 29.03 in983.1 mb - 0.00 in0.0 mm 0.00 in0.0 mm
05:00 PM 81.1°F27.3°C 80.8°F27.1°C 99% Calm Calm -- 29.02 in982.7 mb - 0.00 in0.0 mm 0.00 in0.0 mm
06:00 PM 79.2°F26.2°C 78.9°F26.1°C 99% Calm Calm -- 29.02 in982.7 mb - 0.00 in0.0 mm 0.00 in0.0 mm
07:00 PM 77.4°F25.2°C 77.1°F25.1°C 99% Calm Calm -- 29.02 in982.7 mb - 0.00 in0.0 mm 0.00 in0.0 mm
08:00 PM 76.3°F24.6°C 76.0°F24.4°C 99% Calm Calm -- 29.04 in983.4 mb - 0.00 in0.0 mm 0.00 in0.0 mm
09:00 PM 73.2°F22.9°C 72.9°F22.7°C 99% Calm Calm -- 29.06 in984.1 mb - 0.00 in0.0 mm 0.00 in0.0 mm
10:00 PM 71.0°F21.7°C 70.7°F21.5°C 99% Calm Calm -- 29.09 in985.1 mb - 0.00 in0.0 mm 0.00 in0.0 mm
11:00 PM 71.1°F21.7°C 70.8°F21.6°C 99% Calm Calm -- 29.12 in986.1 mb - 0.00 in0.0 mm 0.00 in0.0 mm